In Rescue
 
Open Full Screen Window  High Contrast Mode
Wind Gusting 00 knots
06
May 25, 2022 9:18 PM CDT
Weather Information
Wind Direction
  020 °
Wind Speed
  06 kt (7 mph)
Wind Gust
  00 kt (0 mph)
Altimeter
29.91 in
Visibility
10 SM
Temperature
11° C
52° F
Dewpoint
09° C
48° F
Humidity
88%
1hr Rain Fall
00.00 in.
24hr Rain Fall
00.02 in.
Sky Condition
Overcast @ 3,200 ft
Scattered @ 2,300 ft
VFR

METAR KGDB 260218Z AUTO 02006KT 10SM SCT023 OVC032 11/09 A2991 RMK AO2 T01130088

FAA Disclaimer: The data displayed is for advisory purposes only and is not to be used for flight planning or operations.